sensor_id;sensor_type;location;lat;lon;timestamp;pressure;altitude;pressure_sealevel;temperature;humidity
76378;BME280;65200;49.500;8.654;2023-05-24T00:01:45;100951.75;;;10.38;80.68
76378;BME280;65200;49.500;8.654;2023-05-24T00:04:12;100935.53;;;10.31;80.60
76378;BME280;65200;49.500;8.654;2023-05-24T00:06:39;100938.66;;;10.43;80.95
76378;BME280;65200;49.500;8.654;2023-05-24T00:09:06;100935.44;;;10.47;80.33
76378;BME280;65200;49.500;8.654;2023-05-24T00:11:33;100937.09;;;10.56;80.14
76378;BME280;65200;49.500;8.654;2023-05-24T00:14:01;100937.78;;;10.50;80.39
76378;BME280;65200;49.500;8.654;2023-05-24T00:16:28;100923.00;;;10.24;81.96
76378;BME280;65200;49.500;8.654;2023-05-24T00:18:54;100936.97;;;10.03;82.26
76378;BME280;65200;49.500;8.654;2023-05-24T00:21:22;100928.66;;;9.82;82.83
76378;BME280;65200;49.500;8.654;2023-05-24T00:23:49;100934.38;;;9.63;83.56
76378;BME280;65200;49.500;8.654;2023-05-24T00:26:16;100905.31;;;9.52;84.24
76378;BME280;65200;49.500;8.654;2023-05-24T00:28:43;100912.34;;;9.37;85.43
76378;BME280;65200;49.500;8.654;2023-05-24T00:31:10;100929.03;;;9.55;85.28
76378;BME280;65200;49.500;8.654;2023-05-24T00:33:37;100888.25;;;9.45;85.38
76378;BME280;65200;49.500;8.654;2023-05-24T00:36:04;100928.00;;;9.80;84.84
76378;BME280;65200;49.500;8.654;2023-05-24T00:38:30;100922.94;;;9.93;84.76
76378;BME280;65200;49.500;8.654;2023-05-24T00:40:57;100924.13;;;9.83;84.45
76378;BME280;65200;49.500;8.654;2023-05-24T00:43:25;100908.56;;;9.86;83.62
76378;BME280;65200;49.500;8.654;2023-05-24T00:46:09;100916.75;;;9.85;83.55
76378;BME280;65200;49.500;8.654;2023-05-24T00:48:39;100878.34;;;9.61;83.42
76378;BME280;65200;49.500;8.654;2023-05-24T00:51:06;100906.56;;;9.88;82.66
76378;BME280;65200;49.500;8.654;2023-05-24T00:53:34;100902.81;;;9.97;82.26
76378;BME280;65200;49.500;8.654;2023-05-24T00:56:02;100893.53;;;9.85;82.40
76378;BME280;65200;49.500;8.654;2023-05-24T00:58:30;100884.69;;;9.68;82.65
76378;BME280;65200;49.500;8.654;2023-05-24T01:00:58;100880.03;;;9.70;82.43
76378;BME280;65200;49.500;8.654;2023-05-24T01:03:26;100875.34;;;9.64;82.15
76378;BME280;65200;49.500;8.654;2023-05-24T01:05:56;100891.38;;;9.64;83.69
76378;BME280;65200;49.500;8.654;2023-05-24T01:11:23;100841.66;;;9.31;84.01
76378;BME280;65200;49.500;8.654;2023-05-24T01:13:58;100887.63;;;9.43;84.87
76378;BME280;65200;49.500;8.654;2023-05-24T01:16:35;100890.59;;;9.56;84.21
76378;BME280;65200;49.500;8.654;2023-05-24T01:19:28;100881.56;;;9.49;83.91
76378;BME280;65200;49.500;8.654;2023-05-24T01:22:19;100899.88;;;9.76;84.86
76378;BME280;65200;49.500;8.654;2023-05-24T01:24:57;100906.13;;;9.68;84.24
76378;BME280;65200;49.500;8.654;2023-05-24T01:27:29;100901.28;;;9.64;85.02
76378;BME280;65200;49.500;8.654;2023-05-24T01:29:57;100903.97;;;9.64;83.99
76378;BME280;65200;49.500;8.654;2023-05-24T01:32:24;100906.22;;;9.83;82.40
76378;BME280;65200;49.500;8.654;2023-05-24T01:34:51;100915.28;;;9.82;81.94
76378;BME280;65200;49.500;8.654;2023-05-24T01:37:17;100914.78;;;9.79;82.24
76378;BME280;65200;49.500;8.654;2023-05-24T01:39:44;100902.63;;;9.60;82.71
76378;BME280;65200;49.500;8.654;2023-05-24T01:42:14;100912.16;;;9.62;84.12
76378;BME280;65200;49.500;8.654;2023-05-24T01:44:58;100906.16;;;9.52;83.70
76378;BME280;65200;49.500;8.654;2023-05-24T01:47:34;100927.31;;;9.78;82.72
76378;BME280;65200;49.500;8.654;2023-05-24T01:50:16;100915.47;;;9.81;82.11
76378;BME280;65200;49.500;8.654;2023-05-24T01:52:43;100933.03;;;9.75;82.10
76378;BME280;65200;49.500;8.654;2023-05-24T01:55:14;100911.81;;;9.65;82.73
76378;BME280;65200;49.500;8.654;2023-05-24T01:57:43;100926.63;;;9.84;81.46
76378;BME280;65200;49.500;8.654;2023-05-24T02:00:14;100925.66;;;9.85;80.93
76378;BME280;65200;49.500;8.654;2023-05-24T02:02:42;100909.31;;;9.64;81.43
76378;BME280;65200;49.500;8.654;2023-05-24T02:05:09;100915.97;;;9.68;80.87
76378;BME280;65200;49.500;8.654;2023-05-24T02:07:36;100922.50;;;9.73;83.31
76378;BME280;65200;49.500;8.654;2023-05-24T02:10:03;100868.91;;;9.35;81.76
76378;BME280;65200;49.500;8.654;2023-05-24T02:12:29;100921.63;;;9.81;81.91
76378;BME280;65200;49.500;8.654;2023-05-24T02:14:56;100918.75;;;9.91;80.24
76378;BME280;65200;49.500;8.654;2023-05-24T02:17:25;100906.59;;;9.72;82.39
76378;BME280;65200;49.500;8.654;2023-05-24T02:19:52;100913.94;;;9.78;81.68
76378;BME280;65200;49.500;8.654;2023-05-24T02:22:18;100899.38;;;9.72;80.91
76378;BME280;65200;49.500;8.654;2023-05-24T02:24:46;100924.63;;;9.86;81.29
76378;BME280;65200;49.500;8.654;2023-05-24T02:27:13;100928.50;;;9.84;80.34
76378;BME280;65200;49.500;8.654;2023-05-24T02:29:40;100930.31;;;9.83;79.74
76378;BME280;65200;49.500;8.654;2023-05-24T02:32:07;100930.47;;;9.90;79.97
76378;BME280;65200;49.500;8.654;2023-05-24T02:34:35;100928.97;;;9.87;78.99
76378;BME280;65200;49.500;8.654;2023-05-24T02:37:01;100933.34;;;9.80;80.58
76378;BME280;65200;49.500;8.654;2023-05-24T02:39:28;100937.34;;;9.84;80.40
76378;BME280;65200;49.500;8.654;2023-05-24T02:41:55;100922.28;;;9.83;79.67
76378;BME280;65200;49.500;8.654;2023-05-24T02:44:21;100925.28;;;9.88;79.29
76378;BME280;65200;49.500;8.654;2023-05-24T02:46:48;100924.97;;;9.83;77.22
76378;BME280;65200;49.500;8.654;2023-05-24T02:49:15;100920.09;;;9.95;76.83
76378;BME280;65200;49.500;8.654;2023-05-24T02:51:42;100883.16;;;9.82;76.35
76378;BME280;65200;49.500;8.654;2023-05-24T02:54:09;100915.19;;;10.06;77.26
76378;BME280;65200;49.500;8.654;2023-05-24T02:56:35;100924.06;;;9.99;77.07
76378;BME280;65200;49.500;8.654;2023-05-24T02:59:03;100919.59;;;9.91;76.26
76378;BME280;65200;49.500;8.654;2023-05-24T03:01:31;100926.13;;;9.89;76.59
76378;BME280;65200;49.500;8.654;2023-05-24T03:03:58;100922.97;;;9.85;76.54
76378;BME280;65200;49.500;8.654;2023-05-24T03:06:24;100908.06;;;9.83;76.32
76378;BME280;65200;49.500;8.654;2023-05-24T03:08:52;100908.06;;;9.83;77.07
76378;BME280;65200;49.500;8.654;2023-05-24T03:11:19;100924.78;;;9.93;76.72
76378;BME280;65200;49.500;8.654;2023-05-24T03:13:46;100919.63;;;9.83;76.53
76378;BME280;65200;49.500;8.654;2023-05-24T03:16:13;100922.28;;;9.83;76.88
76378;BME280;65200;49.500;8.654;2023-05-24T03:18:41;100923.00;;;9.77;76.57
76378;BME280;65200;49.500;8.654;2023-05-24T03:21:07;100923.97;;;9.84;76.25
76378;BME280;65200;49.500;8.654;2023-05-24T03:23:34;100924.81;;;9.85;77.10
76378;BME280;65200;49.500;8.654;2023-05-24T03:26:01;100922.97;;;9.85;77.10
76378;BME280;65200;49.500;8.654;2023-05-24T03:28:28;100920.47;;;9.84;75.17
76378;BME280;65200;49.500;8.654;2023-05-24T03:30:54;100922.81;;;9.79;75.81
76378;BME280;65200;49.500;8.654;2023-05-24T03:33:21;100929.97;;;9.86;75.26
76378;BME280;65200;49.500;8.654;2023-05-24T03:35:47;100930.69;;;9.80;76.20
76378;BME280;65200;49.500;8.654;2023-05-24T03:38:14;100895.28;;;9.46;76.90
76378;BME280;65200;49.500;8.654;2023-05-24T03:40:40;100932.69;;;9.70;76.42
76378;BME280;65200;49.500;8.654;2023-05-24T03:43:08;100905.66;;;9.49;77.32
76378;BME280;65200;49.500;8.654;2023-05-24T03:45:35;100929.00;;;9.71;77.24
76378;BME280;65200;49.500;8.654;2023-05-24T03:48:01;100929.84;;;9.71;75.74
76378;BME280;65200;49.500;8.654;2023-05-24T03:50:27;100938.06;;;9.70;76.47
76378;BME280;65200;49.500;8.654;2023-05-24T03:52:54;100937.03;;;9.71;75.91
76378;BME280;65200;49.500;8.654;2023-05-24T03:55:21;100930.22;;;9.60;76.44
76378;BME280;65200;49.500;8.654;2023-05-24T03:57:47;100923.19;;;9.51;77.62
76378;BME280;65200;49.500;8.654;2023-05-24T04:00:15;100937.41;;;9.52;77.40
76378;BME280;65200;49.500;8.654;2023-05-24T04:02:42;100936.72;;;9.58;77.04
76378;BME280;65200;49.500;8.654;2023-05-24T04:05:09;100916.50;;;9.55;76.14
76378;BME280;65200;49.500;8.654;2023-05-24T04:07:36;100903.31;;;9.46;75.16
76378;BME280;65200;49.500;8.654;2023-05-24T04:10:03;100906.47;;;9.65;74.67
76378;BME280;65200;49.500;8.654;2023-05-24T04:12:30;100925.03;;;9.59;75.90
76378;BME280;65200;49.500;8.654;2023-05-24T04:14:57;100929.69;;;9.73;75.79
76378;BME280;65200;49.500;8.654;2023-05-24T04:17:25;100925.16;;;9.82;75.86
76378;BME280;65200;49.500;8.654;2023-05-24T04:19:53;100934.69;;;9.76;76.20
76378;BME280;65200;49.500;8.654;2023-05-24T04:22:20;100933.22;;;9.65;75.74
76378;BME280;65200;49.500;8.654;2023-05-24T04:24:46;100940.75;;;9.54;76.79
76378;BME280;65200;49.500;8.654;2023-05-24T04:27:13;100934.41;;;9.47;75.58
76378;BME280;65200;49.500;8.654;2023-05-24T04:29:40;100940.44;;;9.41;76.02
76378;BME280;65200;49.500;8.654;2023-05-24T04:32:06;100940.63;;;9.31;77.34
76378;BME280;65200;49.500;8.654;2023-05-24T04:34:35;100936.09;;;9.24;77.44
76378;BME280;65200;49.500;8.654;2023-05-24T04:37:06;100926.75;;;9.12;78.63
76378;BME280;65200;49.500;8.654;2023-05-24T04:39:33;100930.41;;;9.11;77.96
76378;BME280;65200;49.500;8.654;2023-05-24T04:42:00;100943.78;;;9.19;77.12
76378;BME280;65200;49.500;8.654;2023-05-24T04:44:26;100937.78;;;9.17;77.97
76378;BME280;65200;49.500;8.654;2023-05-24T04:46:53;100941.28;;;9.09;77.91
76378;BME280;65200;49.500;8.654;2023-05-24T04:49:19;100932.91;;;8.96;78.39
76378;BME280;65200;49.500;8.654;2023-05-24T04:51:48;100941.44;;;9.08;78.38
76378;BME280;65200;49.500;8.654;2023-05-24T04:54:14;100941.28;;;9.17;76.22
76378;BME280;65200;49.500;8.654;2023-05-24T04:56:42;100952.97;;;9.16;76.34
76378;BME280;65200;49.500;8.654;2023-05-24T04:59:09;100963.34;;;9.19;76.46
76378;BME280;65200;49.500;8.654;2023-05-24T05:01:36;100963.50;;;9.34;76.87
76378;BME280;65200;49.500;8.654;2023-05-24T05:04:02;100951.81;;;9.19;78.61
76378;BME280;65200;49.500;8.654;2023-05-24T05:06:30;100967.19;;;9.25;75.49
76378;BME280;65200;49.500;8.654;2023-05-24T05:08:59;100967.19;;;9.33;76.21
76378;BME280;65200;49.500;8.654;2023-05-24T05:11:26;100957.34;;;9.33;75.79
76378;BME280;65200;49.500;8.654;2023-05-24T05:13:53;100972.53;;;9.41;75.20
76378;BME280;65200;49.500;8.654;2023-05-24T05:16:19;100937.09;;;9.23;75.66
76378;BME280;65200;49.500;8.654;2023-05-24T05:18:46;100964.00;;;9.61;74.92
76378;BME280;65200;49.500;8.654;2023-05-24T05:21:12;100975.38;;;9.63;74.20
76378;BME280;65200;49.500;8.654;2023-05-24T05:23:39;100954.50;;;9.35;75.03
76378;BME280;65200;49.500;8.654;2023-05-24T05:26:07;100970.72;;;9.49;76.45
76378;BME280;65200;49.500;8.654;2023-05-24T05:28:33;100956.47;;;9.57;75.04
76378;BME280;65200;49.500;8.654;2023-05-24T05:31:00;100951.09;;;9.73;74.40
76378;BME280;65200;49.500;8.654;2023-05-24T05:33:26;100964.44;;;9.89;73.51
76378;BME280;65200;49.500;8.654;2023-05-24T05:35:53;100952.00;;;10.04;73.31
76378;BME280;65200;49.500;8.654;2023-05-24T05:38:19;100967.06;;;10.21;73.47
76378;BME280;65200;49.500;8.654;2023-05-24T05:40:46;100970.50;;;10.38;72.38
76378;BME280;65200;49.500;8.654;2023-05-24T05:43:13;100970.41;;;10.54;72.77
76378;BME280;65200;49.500;8.654;2023-05-24T05:45:40;100967.22;;;10.58;72.93
76378;BME280;65200;49.500;8.654;2023-05-24T05:48:06;100975.75;;;10.62;70.37
76378;BME280;65200;49.500;8.654;2023-05-24T05:50:33;100974.28;;;10.51;71.87
76378;BME280;65200;49.500;8.654;2023-05-24T05:52:59;100978.31;;;10.47;71.69
76378;BME280;65200;49.500;8.654;2023-05-24T05:55:26;100979.56;;;10.37;71.10
76378;BME280;65200;49.500;8.654;2023-05-24T05:57:52;100975.09;;;10.13;70.86
76378;BME280;65200;49.500;8.654;2023-05-24T06:00:21;100985.63;;;10.07;72.59
76378;BME280;65200;49.500;8.654;2023-05-24T06:02:48;100980.16;;;9.92;73.56
76378;BME280;65200;49.500;8.654;2023-05-24T06:05:15;100984.72;;;9.84;72.44
76378;BME280;65200;49.500;8.654;2023-05-24T06:07:41;100984.56;;;9.77;73.26
76378;BME280;65200;49.500;8.654;2023-05-24T06:10:08;100979.56;;;9.74;74.13
76378;BME280;65200;49.500;8.654;2023-05-24T06:12:35;100982.84;;;9.84;72.36
76378;BME280;65200;49.500;8.654;2023-05-24T06:15:03;100994.53;;;9.99;73.30
76378;BME280;65200;49.500;8.654;2023-05-24T06:17:31;100986.13;;;10.18;72.62
76378;BME280;65200;49.500;8.654;2023-05-24T06:19:58;100977.91;;;10.36;71.12
76378;BME280;65200;49.500;8.654;2023-05-24T06:22:26;100989.03;;;10.47;70.54
76378;BME280;65200;49.500;8.654;2023-05-24T06:24:53;100993.16;;;10.66;69.00
76378;BME280;65200;49.500;8.654;2023-05-24T06:27:20;100997.81;;;10.72;67.52
76378;BME280;65200;49.500;8.654;2023-05-24T06:29:46;100994.16;;;10.65;67.60
76378;BME280;65200;49.500;8.654;2023-05-24T06:32:13;100999.09;;;10.53;69.99
76378;BME280;65200;49.500;8.654;2023-05-24T06:34:41;100998.81;;;10.71;68.24
76378;BME280;65200;49.500;8.654;2023-05-24T06:37:07;100999.53;;;10.65;70.38
76378;BME280;65200;49.500;8.654;2023-05-24T06:39:34;100995.78;;;10.74;67.26
76378;BME280;65200;49.500;8.654;2023-05-24T06:42:01;100978.94;;;10.57;69.25
76378;BME280;65200;49.500;8.654;2023-05-24T06:44:27;100998.50;;;10.66;67.53
76378;BME280;65200;49.500;8.654;2023-05-24T06:46:58;100993.63;;;10.69;66.79
76378;BME280;65200;49.500;8.654;2023-05-24T06:49:25;101009.28;;;10.88;65.78
76378;BME280;65200;49.500;8.654;2023-05-24T06:51:53;101001.78;;;11.06;65.94
76378;BME280;65200;49.500;8.654;2023-05-24T06:54:20;100963.63;;;10.96;65.54
76378;BME280;65200;49.500;8.654;2023-05-24T06:56:46;100987.34;;;11.07;66.28
76378;BME280;65200;49.500;8.654;2023-05-24T06:59:13;101019.41;;;11.32;65.44
76378;BME280;65200;49.500;8.654;2023-05-24T07:01:40;100980.81;;;11.33;62.63
76378;BME280;65200;49.500;8.654;2023-05-24T07:04:07;101017.25;;;11.50;65.57
76378;BME280;65200;49.500;8.654;2023-05-24T07:06:34;101004.13;;;11.77;62.05
76378;BME280;65200;49.500;8.654;2023-05-24T07:09:03;101012.03;;;12.22;61.05
76378;BME280;65200;49.500;8.654;2023-05-24T07:11:30;100992.75;;;12.48;59.77
76378;BME280;65200;49.500;8.654;2023-05-24T07:13:57;101016.41;;;13.45;56.06
76378;BME280;65200;49.500;8.654;2023-05-24T07:16:23;101011.22;;;13.64;56.52
76378;BME280;65200;49.500;8.654;2023-05-24T07:18:50;101020.16;;;13.93;55.52
76378;BME280;65200;49.500;8.654;2023-05-24T07:21:16;101017.13;;;14.30;56.21
76378;BME280;65200;49.500;8.654;2023-05-24T07:23:43;101021.03;;;14.00;55.61
76378;BME280;65200;49.500;8.654;2023-05-24T07:26:11;100964.19;;;13.95;52.63
76378;BME280;65200;49.500;8.654;2023-05-24T07:28:38;101012.19;;;14.80;52.14
76378;BME280;65200;49.500;8.654;2023-05-24T07:31:07;100977.06;;;14.67;51.42
76378;BME280;65200;49.500;8.654;2023-05-24T07:33:35;101000.66;;;15.19;50.62
76378;BME280;65200;49.500;8.654;2023-05-24T07:36:02;101017.53;;;15.34;53.90
76378;BME280;65200;49.500;8.654;2023-05-24T07:38:28;100990.16;;;15.57;50.70
76378;BME280;65200;49.500;8.654;2023-05-24T07:40:57;100978.53;;;15.82;48.05
76378;BME280;65200;49.500;8.654;2023-05-24T07:43:25;101007.59;;;16.19;49.58
76378;BME280;65200;49.500;8.654;2023-05-24T07:45:52;100996.75;;;16.46;47.59
76378;BME280;65200;49.500;8.654;2023-05-24T07:48:19;100976.84;;;15.88;47.55
76378;BME280;65200;49.500;8.654;2023-05-24T07:50:47;101006.25;;;16.61;48.71
76378;BME280;65200;49.500;8.654;2023-05-24T07:53:15;100993.06;;;15.94;49.41
76378;BME280;65200;49.500;8.654;2023-05-24T07:55:41;101004.72;;;15.95;48.58
76378;BME280;65200;49.500;8.654;2023-05-24T07:58:08;101001.38;;;15.99;49.25
76378;BME280;65200;49.500;8.654;2023-05-24T08:00:36;100972.66;;;16.11;48.90
76378;BME280;65200;49.500;8.654;2023-05-24T08:03:05;100998.81;;;16.30;47.96
76378;BME280;65200;49.500;8.654;2023-05-24T08:05:32;101010.91;;;16.21;48.34
76378;BME280;65200;49.500;8.654;2023-05-24T08:07:58;100995.53;;;16.15;49.95
76378;BME280;65200;49.500;8.654;2023-05-24T08:10:25;101002.16;;;16.39;50.64
76378;BME280;65200;49.500;8.654;2023-05-24T08:12:55;100999.25;;;16.34;48.70
76378;BME280;65200;49.500;8.654;2023-05-24T08:15:21;100980.44;;;16.65;48.16
76378;BME280;65200;49.500;8.654;2023-05-24T08:17:49;100994.44;;;17.62;45.44
76378;BME280;65200;49.500;8.654;2023-05-24T08:20:16;100968.00;;;17.26;48.70
76378;BME280;65200;49.500;8.654;2023-05-24T08:22:42;100975.00;;;16.72;48.57
76378;BME280;65200;49.500;8.654;2023-05-24T08:25:09;100991.09;;;16.54;49.31
76378;BME280;65200;49.500;8.654;2023-05-24T08:27:36;101007.09;;;16.62;48.88
76378;BME280;65200;49.500;8.654;2023-05-24T08:30:08;101000.13;;;16.79;49.64
76378;BME280;65200;49.500;8.654;2023-05-24T08:32:35;101007.34;;;16.54;49.97
76378;BME280;65200;49.500;8.654;2023-05-24T08:35:04;101014.66;;;16.20;47.60
76378;BME280;65200;49.500;8.654;2023-05-24T08:37:31;101016.75;;;15.73;51.87
76378;BME280;65200;49.500;8.654;2023-05-24T08:39:58;101016.97;;;15.58;51.57
76378;BME280;65200;49.500;8.654;2023-05-24T08:42:24;101013.03;;;16.06;48.39
76378;BME280;65200;49.500;8.654;2023-05-24T08:45:03;101000.09;;;16.08;49.95
76378;BME280;65200;49.500;8.654;2023-05-24T08:47:31;101017.81;;;15.72;51.57
76378;BME280;65200;49.500;8.654;2023-05-24T08:49:58;101024.88;;;15.66;50.76
76378;BME280;65200;49.500;8.654;2023-05-24T08:52:27;101018.00;;;15.44;54.66
76378;BME280;65200;49.500;8.654;2023-05-24T08:55:03;101024.47;;;15.69;52.70
76378;BME280;65200;49.500;8.654;2023-05-24T08:57:30;101017.81;;;15.52;54.87
76378;BME280;65200;49.500;8.654;2023-05-24T08:59:59;100951.47;;;15.30;48.42
76378;BME280;65200;49.500;8.654;2023-05-24T09:02:25;100998.66;;;15.99;49.15
76378;BME280;65200;49.500;8.654;2023-05-24T09:04:53;101029.06;;;15.82;49.59
76378;BME280;65200;49.500;8.654;2023-05-24T09:07:20;101021.56;;;16.10;50.65
76378;BME280;65200;49.500;8.654;2023-05-24T09:09:54;101013.44;;;16.03;47.45
76378;BME280;65200;49.500;8.654;2023-05-24T09:12:23;100978.53;;;15.56;47.90
76378;BME280;65200;49.500;8.654;2023-05-24T09:14:52;101004.72;;;15.56;51.84
76378;BME280;65200;49.500;8.654;2023-05-24T09:17:19;100973.94;;;15.70;47.48
76378;BME280;65200;49.500;8.654;2023-05-24T09:19:46;100995.72;;;16.27;42.50
76378;BME280;65200;49.500;8.654;2023-05-24T09:22:14;101005.06;;;16.51;42.31
76378;BME280;65200;49.500;8.654;2023-05-24T09:24:48;100973.75;;;16.68;41.16
76378;BME280;65200;49.500;8.654;2023-05-24T09:27:19;101001.72;;;16.55;42.10
76378;BME280;65200;49.500;8.654;2023-05-24T09:29:49;100961.13;;;16.42;45.08
76378;BME280;65200;49.500;8.654;2023-05-24T09:32:18;100998.25;;;17.23;40.56
76378;BME280;65200;49.500;8.654;2023-05-24T09:34:51;101002.69;;;17.11;45.06
76378;BME280;65200;49.500;8.654;2023-05-24T09:37:19;100976.47;;;16.68;45.23
76378;BME280;65200;49.500;8.654;2023-05-24T09:39:48;101001.75;;;17.86;37.91
76378;BME280;65200;49.500;8.654;2023-05-24T09:42:17;100988.69;;;17.52;41.24
76378;BME280;65200;49.500;8.654;2023-05-24T09:44:47;101008.06;;;16.74;38.14
76378;BME280;65200;49.500;8.654;2023-05-24T09:47:14;100983.38;;;16.64;41.29
76378;BME280;65200;49.500;8.654;2023-05-24T09:49:40;101000.72;;;17.25;42.22
76378;BME280;65200;49.500;8.654;2023-05-24T09:52:07;100967.56;;;17.29;37.35
76378;BME280;65200;49.500;8.654;2023-05-24T09:54:34;100959.44;;;17.60;38.85
76378;BME280;65200;49.500;8.654;2023-05-24T09:57:11;100945.53;;;17.75;37.25
76378;BME280;65200;49.500;8.654;2023-05-24T09:59:54;100963.88;;;17.17;41.47
76378;BME280;65200;49.500;8.654;2023-05-24T10:02:21;100950.91;;;16.57;43.06
76378;BME280;65200;49.500;8.654;2023-05-24T10:07:27;100939.44;;;15.78;41.81
76378;BME280;65200;49.500;8.654;2023-05-24T10:09:56;100944.84;;;15.39;46.96
76378;BME280;65200;49.500;8.654;2023-05-24T10:12:23;100967.25;;;15.13;50.19
76378;BME280;65200;49.500;8.654;2023-05-24T10:14:50;101003.38;;;15.19;51.75
76378;BME280;65200;49.500;8.654;2023-05-24T10:17:18;101015.69;;;14.74;52.36
76378;BME280;65200;49.500;8.654;2023-05-24T10:19:45;100984.16;;;14.00;54.76
76378;BME280;65200;49.500;8.654;2023-05-24T10:22:14;101005.63;;;14.96;49.01
76378;BME280;65200;49.500;8.654;2023-05-24T10:24:45;100963.09;;;15.37;51.27
76378;BME280;65200;49.500;8.654;2023-05-24T10:27:15;100984.34;;;15.79;50.67
76378;BME280;65200;49.500;8.654;2023-05-24T10:29:49;100985.38;;;15.98;48.56
76378;BME280;65200;49.500;8.654;2023-05-24T10:32:21;100946.50;;;15.79;49.46
76378;BME280;65200;49.500;8.654;2023-05-24T10:34:49;100970.59;;;15.87;49.58
76378;BME280;65200;49.500;8.654;2023-05-24T10:37:18;100964.38;;;15.93;46.59
76378;BME280;65200;49.500;8.654;2023-05-24T10:39:45;100977.50;;;15.57;47.25
76378;BME280;65200;49.500;8.654;2023-05-24T10:42:12;100970.94;;;15.12;51.63
76378;BME280;65200;49.500;8.654;2023-05-24T10:44:38;100963.91;;;16.22;48.09
76378;BME280;65200;49.500;8.654;2023-05-24T10:47:08;100955.53;;;16.37;43.80
76378;BME280;65200;49.500;8.654;2023-05-24T10:49:38;100941.28;;;16.68;43.39
76378;BME280;65200;49.500;8.654;2023-05-24T10:52:08;100940.28;;;16.56;45.05
76378;BME280;65200;49.500;8.654;2023-05-24T10:54:35;100946.91;;;17.04;44.12
76378;BME280;65200;49.500;8.654;2023-05-24T10:57:02;100977.19;;;17.25;46.63
76378;BME280;65200;49.500;8.654;2023-05-24T10:59:32;100975.25;;;17.01;44.55
76378;BME280;65200;49.500;8.654;2023-05-24T11:02:05;100924.59;;;16.71;42.89
76378;BME280;65200;49.500;8.654;2023-05-24T11:04:38;100966.25;;;16.70;40.67
76378;BME280;65200;49.500;8.654;2023-05-24T11:07:07;100947.53;;;16.68;43.26
76378;BME280;65200;49.500;8.654;2023-05-24T11:09:35;100960.88;;;17.01;45.92
76378;BME280;65200;49.500;8.654;2023-05-24T11:12:05;100945.38;;;16.77;46.64
76378;BME280;65200;49.500;8.654;2023-05-24T11:14:35;100976.50;;;16.55;49.45
76378;BME280;65200;49.500;8.654;2023-05-24T11:17:04;100938.53;;;16.10;47.71
76378;BME280;65200;49.500;8.654;2023-05-24T11:19:32;100945.53;;;16.44;48.22
76378;BME280;65200;49.500;8.654;2023-05-24T11:22:03;100984.06;;;16.90;47.80
76378;BME280;65200;49.500;8.654;2023-05-24T11:24:32;100968.66;;;16.91;43.13
76378;BME280;65200;49.500;8.654;2023-05-24T11:27:00;100967.22;;;16.82;47.46
76378;BME280;65200;49.500;8.654;2023-05-24T11:29:28;100968.16;;;16.63;46.04
76378;BME280;65200;49.500;8.654;2023-05-24T11:31:55;100971.22;;;16.73;45.33
76378;BME280;65200;49.500;8.654;2023-05-24T11:34:26;100971.28;;;17.04;47.69
76378;BME280;65200;49.500;8.654;2023-05-24T11:36:54;100971.56;;;17.27;46.06
76378;BME280;65200;49.500;8.654;2023-05-24T11:39:22;100967.91;;;17.46;41.13
76378;BME280;65200;49.500;8.654;2023-05-24T11:41:52;100955.72;;;17.55;44.78
76378;BME280;65200;49.500;8.654;2023-05-24T11:44:19;100959.56;;;17.41;45.27
76378;BME280;65200;49.500;8.654;2023-05-24T11:46:46;100966.25;;;17.45;42.44
76378;BME280;65200;49.500;8.654;2023-05-24T11:49:14;100959.44;;;17.29;43.80
76378;BME280;65200;49.500;8.654;2023-05-24T11:51:41;100920.19;;;17.63;39.21
76378;BME280;65200;49.500;8.654;2023-05-24T11:54:08;100959.78;;;18.67;42.51
76378;BME280;65200;49.500;8.654;2023-05-24T11:56:37;100943.97;;;18.46;40.03
76378;BME280;65200;49.500;8.654;2023-05-24T11:59:13;100942.50;;;18.80;38.04
76378;BME280;65200;49.500;8.654;2023-05-24T12:01:40;100933.22;;;18.69;40.45
76378;BME280;65200;49.500;8.654;2023-05-24T12:04:07;100942.16;;;18.58;43.69
76378;BME280;65200;49.500;8.654;2023-05-24T12:06:38;100934.19;;;18.45;43.96
76378;BME280;65200;49.500;8.654;2023-05-24T12:09:06;100922.84;;;18.30;43.33
76378;BME280;65200;49.500;8.654;2023-05-24T12:11:40;100927.44;;;17.94;44.88
76378;BME280;65200;49.500;8.654;2023-05-24T12:14:11;100926.41;;;18.49;39.10
76378;BME280;65200;49.500;8.654;2023-05-24T12:16:38;100931.28;;;18.76;35.94
76378;BME280;65200;49.500;8.654;2023-05-24T12:19:05;100935.72;;;19.00;38.71
76378;BME280;65200;49.500;8.654;2023-05-24T12:21:32;100929.00;;;19.44;38.61
76378;BME280;65200;49.500;8.654;2023-05-24T12:24:09;100907.34;;;18.96;38.07
76378;BME280;65200;49.500;8.654;2023-05-24T12:26:41;100930.84;;;19.21;36.52
76378;BME280;65200;49.500;8.654;2023-05-24T12:29:08;100926.41;;;19.38;40.94
76378;BME280;65200;49.500;8.654;2023-05-24T12:31:36;100921.41;;;18.93;39.78
76378;BME280;65200;49.500;8.654;2023-05-24T12:34:03;100929.59;;;19.35;36.40
76378;BME280;65200;49.500;8.654;2023-05-24T12:36:31;100915.63;;;18.72;39.73
76378;BME280;65200;49.500;8.654;2023-05-24T12:39:04;100928.03;;;18.14;44.93
76378;BME280;65200;49.500;8.654;2023-05-24T12:41:42;100926.69;;;18.23;41.38
76378;BME280;65200;49.500;8.654;2023-05-24T12:44:09;100903.69;;;18.25;39.78
76378;BME280;65200;49.500;8.654;2023-05-24T12:46:36;100880.72;;;17.92;45.02
76378;BME280;65200;49.500;8.654;2023-05-24T12:49:03;100898.41;;;18.30;43.90
76378;BME280;65200;49.500;8.654;2023-05-24T12:51:30;100886.97;;;18.46;41.93
76378;BME280;65200;49.500;8.654;2023-05-24T12:53:56;100868.81;;;18.47;40.86
76378;BME280;65200;49.500;8.654;2023-05-24T12:56:23;100908.78;;;19.29;36.48
76378;BME280;65200;49.500;8.654;2023-05-24T12:58:53;100882.69;;;19.51;37.22
76378;BME280;65200;49.500;8.654;2023-05-24T13:01:21;100901.31;;;18.83;44.23
76378;BME280;65200;49.500;8.654;2023-05-24T13:03:48;100901.47;;;18.40;46.23
76378;BME280;65200;49.500;8.654;2023-05-24T13:06:16;100902.19;;;18.29;43.02